Huvudsida
METAR-TAF:

METAR-TAF

Flygplatser :

Phu Quoc flygplats

Phu Quoc, Vietnam

latitud: 10-10-18N, longitud: 103-59-28E, höjd: 11 m

Aktuellt väderrapport

Denna rapport gjordes för 22 minuter sedan, klockan 15:30 UTC
Vind 1 kt varierande vindriktning
Temperatur 27°C
Fuktighet 84%
Tryck 1013 hPa
Sikt 10 km eller mer
Få moln på en höjd av 1500 ft

METAR: VVPQ 181530Z VRB01KT 9999 FEW015 27/24 Q1013 NOSIG

Tid: 22:52 (15:52 UTC)

Väderprognos

Denna rapport gjordes för 4 timmar och 52 minuter sedan, klockan 11:00 UTC
Prognos gäller från 18 kl. 12 UTC till 19 kl. 12 UTC
Vind 10 kt från ost/nordost
Sikt 10 km eller mer
Spridda moln på en höjd av 1700 ft
Spridda moln på en höjd av 4000 ft

TAF: VVPQ 181100Z 1812/1912 06010KT 9999 SCT017 SCT040

Aktuella väderrapporter och prognoser från 4000 flygplatser (METAR- och TAF-rapporter).

De tillgängliga stationerna syns som gula och röda prickar på kartan.

För musen över prickarna för att se namnen på stationerna.

Klicka sedan för att få väderrapporter och prognoser.

För att ändra kartan: Klicka på de gröna knapparna med ett svart kors på för att zooma in; den gröna knappen med ett streck på för att zooma ut; eller på de gröna pilarna för angränsande kartor.


METAR-TAF: